Sunday, October 22, 2017, 8:26 PM EDT
Back to Local

KLNS, Lancaster Airport

Location: Lititz, PA, United States Lat: 40.117
Local Time: 8:26 PM EDT ( 0:26 GMT) Lon: -76.3
Time Zone: US/Eastern Elev: 403 ft

Show me the last for .
Show Decoded

2017-10-22 19:53 METAR KLNS 222353Z 11004KT 10SM CLR 16/08 A3033 RMK AO2 SLP271 T01610083 10233
                 20144 53003 =
2017-10-22 18:53 METAR KLNS 222253Z 07004KT 10SM CLR 16/10 A3032 RMK AO2 SLP267 T01610100 =
2017-10-22 17:53 METAR KLNS 222153Z 15004KT 10SM CLR 20/11 A3031 RMK AO2 SLP265 T02000106 =
2017-10-22 16:53 METAR KLNS 222053Z 16007KT 10SM CLR 22/09 A3032 RMK AO2 SLP266 T02170094 56011 =
2017-10-22 15:53 METAR KLNS 221953Z 17009KT 10SM CLR 23/06 A3033 RMK AO2 SLP268 T02280061 =
2017-10-22 14:53 METAR KLNS 221853Z 15010KT 10SM CLR 23/07 A3033 RMK AO2 SLP271 T02330072 =
2017-10-22 13:53 METAR KLNS 221753Z 15007KT 10SM CLR 23/07 A3035 RMK AO2 SLP276 T02330072 10233
                 20067 58015 =
2017-10-22 12:53 METAR KLNS 221653Z 15010KT 10SM CLR 23/08 A3037 RMK AO2 SLP282 T02280078 =
2017-10-22 11:53 METAR KLNS 221553Z 16005KT 10SM CLR 20/11 A3038 RMK AO2 SLP288 T02000106 =
2017-10-22 10:53 METAR KLNS 221453Z 09003KT 10SM CLR 18/12 A3040 RMK AO2 SLP293 T01780122 58000 =
2017-10-22 09:53 METAR KLNS 221353Z 00000KT 10SM CLR 14/11 A3041 RMK AO2 SLP296 T01390106 =
2017-10-22 08:53 METAR KLNS 221253Z 00000KT 6SM BR CLR 11/09 A3041 RMK AO2 SLP298 T01060094 =
2017-10-22 07:53 METAR KLNS 221153Z 09004KT 4SM BR CLR 07/07 A3040 RMK AO2 SLP293 T00670067 10100
                 20061 51011 =
2017-10-22 06:53 METAR KLNS 221053Z 00000KT 6SM BR CLR 07/07 A3038 RMK AO2 SLP289 T00720067 =
2017-10-22 05:53 METAR KLNS 220953Z 00000KT 8SM CLR 09/08 A3038 RMK AO2 SLP286 T00890078 =
2017-10-22 04:53 METAR KLNS 220853Z AUTO 00000KT 5SM BR CLR 08/08 A3036 RMK AO2 SLP281 T00830078
                 53005 =
2017-10-22 03:53 METAR KLNS 220753Z AUTO 11004KT 5SM BR CLR 08/08 A3035 RMK AO2 SLP277 T00830083
                 =
2017-10-22 02:53 METAR KLNS 220653Z AUTO 00000KT 7SM CLR 09/08 A3035 RMK AO2 SLP278 T00940083 =
2017-10-22 01:53 METAR KLNS 220553Z AUTO 00000KT 8SM CLR 09/08 A3035 RMK AO2 SLP276 T00940083
                 10178 20078 57005 =
2017-10-22 00:53 METAR KLNS 220453Z AUTO 10004KT 8SM CLR 09/08 A3035 RMK AO2 SLP276 T00890083
                 402500056 =
2017-10-21 23:53 METAR KLNS 220353Z AUTO 00000KT 10SM CLR 12/08 A3036 RMK AO2 SLP280 T01220083 =
2017-10-21 22:53 METAR KLNS 220253Z 00000KT 10SM CLR 12/08 A3036 RMK AO2 SLP282 T01220083 51006 =
2017-10-21 21:53 METAR KLNS 220153Z 00000KT 10SM CLR 13/08 A3036 RMK AO2 SLP281 T01330083 =
2017-10-21 20:53 METAR KLNS 220053Z 08004KT 10SM CLR 15/08 A3036 RMK AO2 SLP279 T01500078 =

Support USWX by starting your Amazon purchase here.